createdAt,value
2023-06-04T00:01:47.759Z,100.00
2023-06-04T00:04:17.512Z,100.00
2023-06-04T00:06:45.104Z,100.00
2023-06-04T00:09:12.087Z,100.00
2023-06-04T00:11:39.271Z,100.00
2023-06-04T00:14:06.728Z,100.00
2023-06-04T00:16:36.537Z,100.00
2023-06-04T00:19:04.210Z,100.00
2023-06-04T00:21:31.344Z,100.00
2023-06-04T00:23:58.573Z,100.00
2023-06-04T00:26:26.179Z,100.00
2023-06-04T00:28:53.357Z,100.00
2023-06-04T00:31:20.669Z,100.00
2023-06-04T00:33:47.585Z,100.00
2023-06-04T00:36:15.084Z,100.00
2023-06-04T00:38:42.450Z,100.00
2023-06-04T00:41:09.629Z,100.00
2023-06-04T00:43:37.350Z,100.00
2023-06-04T00:46:05.144Z,100.00
2023-06-04T00:48:32.084Z,100.00
2023-06-04T00:50:59.464Z,100.00
2023-06-04T00:53:27.354Z,100.00
2023-06-04T00:55:54.172Z,100.00
2023-06-04T00:58:21.666Z,100.00
2023-06-04T01:00:49.537Z,100.00
2023-06-04T01:03:22.795Z,100.00
2023-06-04T01:05:57.317Z,100.00
2023-06-04T01:08:25.275Z,100.00
2023-06-04T01:10:59.124Z,100.00
2023-06-04T01:13:26.388Z,100.00
2023-06-04T01:15:53.359Z,100.00
2023-06-04T01:18:30.206Z,100.00
2023-06-04T01:20:57.220Z,100.00
2023-06-04T01:23:37.097Z,100.00
2023-06-04T01:26:05.857Z,100.00
2023-06-04T01:28:36.718Z,100.00
2023-06-04T01:31:06.104Z,100.00
2023-06-04T01:33:33.259Z,100.00
2023-06-04T01:36:02.158Z,100.00
2023-06-04T01:38:29.355Z,100.00
2023-06-04T01:40:57.740Z,100.00
2023-06-04T01:43:27.385Z,100.00
2023-06-04T01:45:55.836Z,100.00
2023-06-04T01:48:25.855Z,100.00
2023-06-04T01:50:52.878Z,100.00
2023-06-04T01:53:20.048Z,100.00
2023-06-04T01:55:47.340Z,100.00
2023-06-04T01:58:14.163Z,100.00
2023-06-04T02:00:41.178Z,100.00
2023-06-04T02:03:12.203Z,100.00
2023-06-04T02:05:39.498Z,100.00
2023-06-04T02:08:06.784Z,100.00
2023-06-04T02:10:54.341Z,100.00
2023-06-04T02:13:21.840Z,100.00
2023-06-04T02:15:55.042Z,100.00
2023-06-04T02:18:26.714Z,100.00
2023-06-04T02:20:53.638Z,100.00
2023-06-04T02:23:22.041Z,100.00
2023-06-04T02:25:52.544Z,100.00
2023-06-04T02:28:19.349Z,100.00
2023-06-04T02:30:49.849Z,100.00
2023-06-04T02:33:17.245Z,100.00
2023-06-04T02:35:47.250Z,100.00
2023-06-04T02:38:17.605Z,100.00
2023-06-04T02:40:48.006Z,100.00
2023-06-04T02:43:15.426Z,100.00
2023-06-04T02:45:45.968Z,100.00
2023-06-04T02:48:12.836Z,100.00
2023-06-04T02:50:40.555Z,100.00
2023-06-04T02:53:07.514Z,100.00
2023-06-04T02:55:35.389Z,100.00
2023-06-04T02:58:02.134Z,100.00
2023-06-04T03:00:29.260Z,100.00
2023-06-04T03:03:02.534Z,100.00
2023-06-04T03:05:33.151Z,100.00
2023-06-04T03:08:06.192Z,100.00
2023-06-04T03:10:35.988Z,100.00
2023-06-04T03:13:03.246Z,100.00
2023-06-04T03:15:30.106Z,100.00
2023-06-04T03:17:58.331Z,100.00
2023-06-04T03:20:25.625Z,100.00
2023-06-04T03:22:55.470Z,100.00
2023-06-04T03:25:22.457Z,100.00
2023-06-04T03:27:56.602Z,100.00
2023-06-04T03:30:27.109Z,100.00
2023-06-04T03:32:53.917Z,100.00
2023-06-04T03:35:20.810Z,100.00
2023-06-04T03:37:47.909Z,100.00
2023-06-04T03:40:14.938Z,100.00
2023-06-04T03:42:42.383Z,100.00
2023-06-04T03:45:10.106Z,100.00
2023-06-04T03:47:37.005Z,100.00
2023-06-04T03:50:06.836Z,100.00
2023-06-04T03:52:34.178Z,100.00
2023-06-04T03:55:01.698Z,100.00
2023-06-04T03:57:32.108Z,100.00
2023-06-04T03:59:58.842Z,100.00
2023-06-04T04:02:29.264Z,100.00
2023-06-04T04:04:58.358Z,100.00
2023-06-04T04:07:25.836Z,100.00
2023-06-04T04:09:56.734Z,100.00
2023-06-04T04:12:23.744Z,100.00
2023-06-04T04:14:53.848Z,100.00
2023-06-04T04:17:20.790Z,100.00
2023-06-04T04:19:51.125Z,100.00
2023-06-04T04:22:21.812Z,100.00
2023-06-04T04:24:48.738Z,100.00
2023-06-04T04:27:17.036Z,100.00
2023-06-04T04:29:44.663Z,100.00
2023-06-04T04:32:12.246Z,100.00
2023-06-04T04:34:43.971Z,100.00
2023-06-04T04:37:10.818Z,100.00
2023-06-04T04:39:38.248Z,100.00
2023-06-04T04:42:05.768Z,100.00
2023-06-04T04:44:32.541Z,100.00
2023-06-04T04:46:59.503Z,100.00
2023-06-04T04:49:26.979Z,100.00
2023-06-04T04:51:53.907Z,100.00
2023-06-04T04:54:22.051Z,100.00
2023-06-04T04:56:53.496Z,100.00
2023-06-04T04:59:25.655Z,100.00
2023-06-04T05:01:52.507Z,100.00
2023-06-04T05:04:19.740Z,100.00
2023-06-04T05:06:47.610Z,100.00
2023-06-04T05:09:14.255Z,100.00
2023-06-04T05:11:41.452Z,100.00
2023-06-04T05:14:08.609Z,100.00
2023-06-04T05:16:41.272Z,100.00
2023-06-04T05:19:13.402Z,100.00
2023-06-04T05:21:44.916Z,100.00
2023-06-04T05:24:12.597Z,100.00
2023-06-04T05:26:40.944Z,100.00
2023-06-04T05:29:08.926Z,100.00
2023-06-04T05:31:36.265Z,100.00
2023-06-04T05:34:08.156Z,100.00
2023-06-04T05:36:36.210Z,100.00
2023-06-04T05:39:05.950Z,100.00
2023-06-04T05:41:33.075Z,100.00
2023-06-04T05:43:59.981Z,100.00
2023-06-04T05:46:26.998Z,100.00
2023-06-04T05:48:55.200Z,100.00
2023-06-04T05:51:22.839Z,100.00
2023-06-04T05:53:49.692Z,100.00
2023-06-04T05:56:22.255Z,100.00
2023-06-04T05:58:53.700Z,100.00
2023-06-04T06:01:21.272Z,100.00
2023-06-04T06:03:48.180Z,100.00
2023-06-04T06:06:15.509Z,100.00
2023-06-04T06:08:42.726Z,100.00
2023-06-04T06:11:11.398Z,100.00
2023-06-04T06:13:38.870Z,100.00
2023-06-04T06:16:06.010Z,100.00
2023-06-04T06:18:34.082Z,100.00
2023-06-04T06:21:01.034Z,100.00
2023-06-04T06:23:27.887Z,100.00
2023-06-04T06:25:54.652Z,100.00
2023-06-04T06:28:21.790Z,100.00
2023-06-04T06:30:49.005Z,100.00
2023-06-04T06:33:17.350Z,100.00
2023-06-04T06:35:47.693Z,100.00
2023-06-04T06:38:17.138Z,100.00
2023-06-04T06:40:45.646Z,100.00
2023-06-04T06:43:12.612Z,100.00
2023-06-04T06:45:39.725Z,100.00
2023-06-04T06:48:06.655Z,100.00
2023-06-04T06:50:36.847Z,100.00
2023-06-04T06:53:04.441Z,100.00
2023-06-04T06:55:31.259Z,100.00
2023-06-04T06:58:01.147Z,100.00
2023-06-04T07:00:31.615Z,100.00
2023-06-04T07:02:58.664Z,100.00
2023-06-04T07:05:25.889Z,100.00
2023-06-04T07:07:53.357Z,100.00
2023-06-04T07:10:20.172Z,100.00
2023-06-04T07:12:47.140Z,100.00
2023-06-04T07:15:14.225Z,100.00
2023-06-04T07:17:41.254Z,100.00
2023-06-04T07:20:10.899Z,100.00
2023-06-04T07:22:37.940Z,99.68
2023-06-04T07:25:05.204Z,99.90
2023-06-04T07:27:32.209Z,97.81
2023-06-04T07:29:59.162Z,98.18
2023-06-04T07:32:26.194Z,98.00
2023-06-04T07:34:56.279Z,96.74
2023-06-04T07:37:23.026Z,96.00
2023-06-04T07:39:50.402Z,98.70
2023-06-04T07:42:17.907Z,98.13
2023-06-04T07:44:45.076Z,95.70
2023-06-04T07:47:11.978Z,95.19
2023-06-04T07:49:47.433Z,94.77
2023-06-04T07:52:21.438Z,96.08
2023-06-04T07:54:48.816Z,94.72
2023-06-04T07:57:16.158Z,92.95
2023-06-04T07:59:43.254Z,91.66
2023-06-04T08:02:13.219Z,92.86
2023-06-04T08:04:41.533Z,92.40
2023-06-04T08:07:08.862Z,91.65
2023-06-04T08:09:36.647Z,92.49
2023-06-04T08:12:03.827Z,95.40
2023-06-04T08:14:31.901Z,90.34
2023-06-04T08:16:59.048Z,92.87
2023-06-04T08:19:29.445Z,90.63
2023-06-04T08:21:56.984Z,92.44
2023-06-04T08:24:24.233Z,90.23
2023-06-04T08:26:51.654Z,88.29
2023-06-04T08:29:18.633Z,91.16
2023-06-04T08:31:48.414Z,87.21
2023-06-04T08:34:15.235Z,87.57
2023-06-04T08:36:42.244Z,85.43
2023-06-04T08:39:11.026Z,83.92
2023-06-04T08:41:56.896Z,84.74
2023-06-04T08:44:23.763Z,83.24
2023-06-04T08:46:54.899Z,77.87
2023-06-04T08:49:23.399Z,74.81
2023-06-04T08:51:50.480Z,77.28
2023-06-04T08:54:17.513Z,76.47
2023-06-04T08:56:45.325Z,76.92
2023-06-04T08:59:12.394Z,78.21
2023-06-04T09:01:39.615Z,76.26
2023-06-04T09:04:11.866Z,75.01
2023-06-04T09:06:41.435Z,75.31
2023-06-04T09:09:11.268Z,75.19
2023-06-04T09:11:43.366Z,77.49
2023-06-04T09:14:12.687Z,80.48
2023-06-04T09:16:46.507Z,78.08
2023-06-04T09:19:18.286Z,79.67
2023-06-04T09:22:03.988Z,81.30
2023-06-04T09:24:54.185Z,83.58
2023-06-04T09:27:27.794Z,84.14
2023-06-04T09:29:57.705Z,84.50
2023-06-04T09:32:25.424Z,86.36
2023-06-04T09:34:54.113Z,85.01
2023-06-04T09:37:24.273Z,86.42
2023-06-04T09:39:57.577Z,86.36
2023-06-04T09:42:25.154Z,87.27
2023-06-04T09:44:57.466Z,87.22
2023-06-04T09:47:24.321Z,87.28
2023-06-04T09:49:53.644Z,88.32
2023-06-04T09:52:22.472Z,87.29
2023-06-04T09:54:51.783Z,85.99
2023-06-04T09:57:20.181Z,86.88
2023-06-04T09:59:50.854Z,86.74
2023-06-04T10:02:25.670Z,86.44
2023-06-04T10:04:59.945Z,86.78
2023-06-04T10:07:27.893Z,87.46
2023-06-04T10:09:55.907Z,86.95
2023-06-04T10:12:30.205Z,88.60
2023-06-04T10:15:12.015Z,86.63
2023-06-04T10:17:39.494Z,85.16
2023-06-04T10:20:11.698Z,82.49
2023-06-04T10:22:39.553Z,82.47
2023-06-04T10:25:07.846Z,83.61
2023-06-04T10:27:38.039Z,84.79
2023-06-04T10:30:12.331Z,84.20
2023-06-04T10:32:39.549Z,81.76
2023-06-04T10:35:10.747Z,84.23
2023-06-04T10:37:37.645Z,84.62
2023-06-04T10:40:07.699Z,86.90
2023-06-04T10:42:44.375Z,83.11
2023-06-04T10:45:12.260Z,84.59
2023-06-04T10:47:42.217Z,84.93
2023-06-04T10:50:14.760Z,80.56
2023-06-04T10:52:55.499Z,77.35
2023-06-04T10:55:22.725Z,78.11
2023-06-04T10:57:57.783Z,80.52
2023-06-04T11:00:42.770Z,81.93
2023-06-04T11:03:12.436Z,83.07
2023-06-04T11:05:47.583Z,83.94
2023-06-04T11:08:15.688Z,86.21
2023-06-04T11:10:44.897Z,84.20
2023-06-04T11:13:12.449Z,85.44
2023-06-04T11:15:42.272Z,85.69
2023-06-04T11:18:10.190Z,87.19
2023-06-04T11:20:37.234Z,87.49
2023-06-04T11:23:04.408Z,88.32
2023-06-04T11:25:32.592Z,88.83
2023-06-04T11:27:59.559Z,90.33
2023-06-04T11:30:26.661Z,91.23
2023-06-04T11:33:06.749Z,91.86
2023-06-04T11:35:42.814Z,92.19
2023-06-04T11:38:10.987Z,93.11
2023-06-04T11:40:37.905Z,94.81
2023-06-04T11:43:04.887Z,96.83
2023-06-04T11:45:31.891Z,95.68
2023-06-04T11:48:01.433Z,98.48
2023-06-04T11:50:30.411Z,99.41
2023-06-04T11:52:57.755Z,100.00
2023-06-04T11:55:25.899Z,100.00
2023-06-04T11:57:53.038Z,100.00
2023-06-04T12:00:21.300Z,100.00
2023-06-04T12:02:56.226Z,100.00
2023-06-04T12:05:33.758Z,100.00
2023-06-04T12:08:11.791Z,100.00
2023-06-04T12:10:42.903Z,100.00
2023-06-04T12:13:10.891Z,100.00
2023-06-04T12:15:38.186Z,100.00
2023-06-04T12:18:07.776Z,100.00
2023-06-04T12:20:39.410Z,100.00
2023-06-04T12:23:07.441Z,100.00
2023-06-04T12:25:35.357Z,100.00
2023-06-04T12:28:04.366Z,100.00
2023-06-04T12:30:38.766Z,100.00
2023-06-04T12:33:05.765Z,100.00
2023-06-04T12:35:35.077Z,100.00
2023-06-04T12:38:05.181Z,100.00
2023-06-04T12:40:32.058Z,100.00
2023-06-04T12:42:59.234Z,100.00
2023-06-04T12:45:27.070Z,100.00
2023-06-04T12:47:53.905Z,100.00
2023-06-04T12:50:22.654Z,100.00
2023-06-04T12:52:49.875Z,100.00
2023-06-04T12:55:16.844Z,100.00
2023-06-04T12:57:45.894Z,100.00
2023-06-04T13:00:13.390Z,100.00
2023-06-04T13:02:40.387Z,100.00
2023-06-04T13:05:07.820Z,100.00
2023-06-04T13:07:34.598Z,100.00
2023-06-04T13:10:01.891Z,100.00
2023-06-04T13:12:32.117Z,100.00
2023-06-04T13:14:59.148Z,100.00
2023-06-04T13:17:26.344Z,100.00
2023-06-04T13:19:53.824Z,100.00
2023-06-04T13:22:20.588Z,100.00
2023-06-04T13:24:47.450Z,100.00
2023-06-04T13:27:14.429Z,100.00
2023-06-04T13:29:43.731Z,100.00
2023-06-04T13:32:12.250Z,100.00
2023-06-04T13:34:39.198Z,100.00
2023-06-04T13:37:07.342Z,100.00
2023-06-04T13:39:34.377Z,100.00
2023-06-04T13:42:01.195Z,100.00
2023-06-04T13:44:30.064Z,100.00
2023-06-04T13:46:59.037Z,100.00
2023-06-04T13:49:26.381Z,100.00
2023-06-04T13:51:53.137Z,100.00
2023-06-04T13:54:19.956Z,100.00
2023-06-04T13:56:47.228Z,100.00
2023-06-04T13:59:14.020Z,100.00
2023-06-04T14:01:41.925Z,100.00
2023-06-04T14:04:08.860Z,100.00
2023-06-04T14:06:39.904Z,100.00
2023-06-04T14:09:08.603Z,100.00
2023-06-04T14:11:35.921Z,100.00
2023-06-04T14:14:08.138Z,100.00
2023-06-04T14:16:35.700Z,100.00
2023-06-04T14:19:02.882Z,100.00
2023-06-04T14:21:33.384Z,100.00
2023-06-04T14:24:06.247Z,100.00
2023-06-04T14:26:33.949Z,100.00
2023-06-04T14:29:16.030Z,100.00
2023-06-04T14:31:43.772Z,100.00
2023-06-04T14:34:10.686Z,100.00
2023-06-04T14:36:37.729Z,100.00
2023-06-04T14:39:04.594Z,100.00
2023-06-04T14:41:34.514Z,100.00
2023-06-04T14:44:01.387Z,100.00
2023-06-04T14:46:28.555Z,100.00
2023-06-04T14:48:55.668Z,100.00
2023-06-04T14:51:25.516Z,100.00
2023-06-04T14:53:52.473Z,100.00
2023-06-04T14:56:19.783Z,100.00
2023-06-04T14:58:46.655Z,100.00
2023-06-04T15:01:13.526Z,100.00
2023-06-04T15:03:41.447Z,100.00
2023-06-04T15:06:18.708Z,100.00
2023-06-04T15:08:47.059Z,100.00
2023-06-04T15:11:16.678Z,100.00
2023-06-04T15:13:43.671Z,100.00
2023-06-04T15:16:10.691Z,100.00
2023-06-04T15:18:37.504Z,100.00
2023-06-04T15:21:04.586Z,100.00
2023-06-04T15:23:31.416Z,100.00
2023-06-04T15:25:58.226Z,100.00
2023-06-04T15:28:24.955Z,100.00
2023-06-04T15:30:53.529Z,100.00
2023-06-04T15:33:20.934Z,100.00
2023-06-04T15:35:47.859Z,100.00
2023-06-04T15:38:14.744Z,100.00
2023-06-04T15:40:42.254Z,100.00
2023-06-04T15:43:09.401Z,100.00
2023-06-04T15:45:36.678Z,100.00
2023-06-04T15:48:03.652Z,100.00
2023-06-04T15:50:31.347Z,100.00
2023-06-04T15:52:58.079Z,100.00
2023-06-04T15:55:25.934Z,100.00
2023-06-04T15:57:53.140Z,100.00
2023-06-04T16:00:20.431Z,100.00
2023-06-04T16:02:53.395Z,100.00
2023-06-04T16:05:20.378Z,100.00
2023-06-04T16:07:50.796Z,100.00
2023-06-04T16:10:17.787Z,100.00
2023-06-04T16:12:44.689Z,100.00
2023-06-04T16:15:11.898Z,100.00
2023-06-04T16:17:39.498Z,100.00
2023-06-04T16:20:07.312Z,100.00
2023-06-04T16:22:34.203Z,100.00
2023-06-04T16:25:03.905Z,100.00
2023-06-04T16:27:30.826Z,100.00
2023-06-04T16:29:57.727Z,100.00
2023-06-04T16:32:27.196Z,100.00
2023-06-04T16:34:54.600Z,100.00
2023-06-04T16:37:22.105Z,100.00
2023-06-04T16:39:49.011Z,100.00
2023-06-04T16:42:17.036Z,100.00
2023-06-04T16:44:43.853Z,100.00
2023-06-04T16:47:10.782Z,100.00
2023-06-04T16:49:37.557Z,100.00
2023-06-04T16:52:05.494Z,100.00
2023-06-04T16:54:32.958Z,100.00
2023-06-04T16:56:59.850Z,100.00
2023-06-04T16:59:31.708Z,100.00
2023-06-04T17:01:59.627Z,100.00
2023-06-04T17:04:26.473Z,100.00
2023-06-04T17:06:53.479Z,100.00
2023-06-04T17:09:20.595Z,100.00
2023-06-04T17:11:48.251Z,100.00
2023-06-04T17:14:15.407Z,100.00
2023-06-04T17:16:42.257Z,100.00
2023-06-04T17:19:09.073Z,100.00
2023-06-04T17:21:36.020Z,100.00
2023-06-04T17:24:03.858Z,100.00
2023-06-04T17:26:31.413Z,100.00
2023-06-04T17:28:58.562Z,100.00
2023-06-04T17:31:25.575Z,100.00
2023-06-04T17:33:52.624Z,100.00
2023-06-04T17:36:21.140Z,100.00
2023-06-04T17:38:49.969Z,100.00
2023-06-04T17:41:17.328Z,100.00
2023-06-04T17:43:44.158Z,100.00
2023-06-04T17:46:11.637Z,100.00
2023-06-04T17:48:38.754Z,100.00
2023-06-04T17:51:06.095Z,100.00
2023-06-04T17:53:33.860Z,100.00
2023-06-04T17:56:00.460Z,100.00
2023-06-04T17:58:27.605Z,100.00
2023-06-04T18:00:55.830Z,100.00
2023-06-04T18:03:25.879Z,100.00
2023-06-04T18:05:53.369Z,100.00
2023-06-04T18:08:20.563Z,100.00
2023-06-04T18:10:48.525Z,100.00
2023-06-04T18:13:16.582Z,100.00
2023-06-04T18:15:44.220Z,100.00
2023-06-04T18:18:11.375Z,100.00
2023-06-04T18:20:39.773Z,100.00
2023-06-04T18:23:07.116Z,100.00
2023-06-04T18:25:34.996Z,100.00
2023-06-04T18:28:02.204Z,100.00
2023-06-04T18:30:32.607Z,100.00
2023-06-04T18:33:03.251Z,100.00
2023-06-04T18:35:37.854Z,100.00
2023-06-04T18:38:07.144Z,100.00
2023-06-04T18:40:36.689Z,100.00
2023-06-04T18:43:06.592Z,100.00
2023-06-04T18:45:34.374Z,100.00
2023-06-04T18:48:07.273Z,100.00
2023-06-04T18:50:40.160Z,100.00
2023-06-04T18:53:33.523Z,100.00
2023-06-04T18:56:10.764Z,100.00
2023-06-04T18:59:29.991Z,100.00
2023-06-04T19:01:57.475Z,100.00
2023-06-04T19:04:24.836Z,100.00
2023-06-04T19:06:51.817Z,100.00
2023-06-04T19:09:19.083Z,100.00
2023-06-04T19:11:46.139Z,100.00
2023-06-04T19:14:13.088Z,100.00
2023-06-04T19:16:40.254Z,100.00
2023-06-04T19:19:10.102Z,100.00
2023-06-04T19:21:37.853Z,100.00
2023-06-04T19:24:06.505Z,100.00
2023-06-04T19:26:43.452Z,100.00
2023-06-04T19:29:11.593Z,100.00
2023-06-04T19:31:42.029Z,100.00
2023-06-04T19:34:11.617Z,100.00
2023-06-04T19:36:38.579Z,100.00
2023-06-04T19:39:05.776Z,100.00
2023-06-04T19:41:32.806Z,100.00
2023-06-04T19:44:02.392Z,100.00
2023-06-04T19:46:30.086Z,100.00
2023-06-04T19:48:59.517Z,100.00
2023-06-04T19:51:30.686Z,100.00
2023-06-04T19:53:57.892Z,100.00
2023-06-04T19:56:26.888Z,100.00
2023-06-04T19:58:54.450Z,100.00
2023-06-04T20:01:21.406Z,100.00
2023-06-04T20:03:52.375Z,100.00
2023-06-04T20:06:22.670Z,100.00
2023-06-04T20:08:49.996Z,100.00
2023-06-04T20:11:17.641Z,100.00
2023-06-04T20:13:45.058Z,100.00
2023-06-04T20:16:12.287Z,100.00
2023-06-04T20:18:39.301Z,100.00
2023-06-04T20:21:09.190Z,100.00
2023-06-04T20:23:36.907Z,100.00
2023-06-04T20:26:03.656Z,100.00
2023-06-04T20:28:32.373Z,100.00
2023-06-04T20:31:00.285Z,100.00
2023-06-04T20:33:30.188Z,100.00
2023-06-04T20:35:58.180Z,100.00
2023-06-04T20:38:25.251Z,100.00
2023-06-04T20:40:52.117Z,100.00
2023-06-04T20:43:19.170Z,100.00
2023-06-04T20:45:46.069Z,100.00
2023-06-04T20:48:13.030Z,100.00
2023-06-04T20:50:39.795Z,100.00
2023-06-04T20:53:06.980Z,100.00
2023-06-04T20:55:36.232Z,100.00
2023-06-04T20:58:06.323Z,100.00
2023-06-04T21:00:33.179Z,100.00
2023-06-04T21:03:00.232Z,100.00
2023-06-04T21:05:27.331Z,100.00
2023-06-04T21:07:59.829Z,100.00
2023-06-04T21:10:28.330Z,100.00
2023-06-04T21:12:55.293Z,100.00
2023-06-04T21:15:22.800Z,100.00
2023-06-04T21:17:50.640Z,100.00
2023-06-04T21:20:17.587Z,100.00
2023-06-04T21:22:44.358Z,100.00
2023-06-04T21:25:11.697Z,100.00
2023-06-04T21:27:38.592Z,100.00
2023-06-04T21:30:07.018Z,100.00
2023-06-04T21:32:35.573Z,100.00
2023-06-04T21:35:02.942Z,100.00
2023-06-04T21:37:30.182Z,100.00
2023-06-04T21:39:57.616Z,100.00
2023-06-04T21:42:24.540Z,100.00
2023-06-04T21:44:51.847Z,100.00
2023-06-04T21:47:19.299Z,100.00
2023-06-04T21:49:46.089Z,100.00
2023-06-04T21:52:21.813Z,100.00
2023-06-04T21:54:55.449Z,100.00
2023-06-04T21:57:22.419Z,100.00
2023-06-04T21:59:49.207Z,100.00
2023-06-04T22:02:16.083Z,100.00
2023-06-04T22:04:43.641Z,100.00
2023-06-04T22:07:10.890Z,100.00
2023-06-04T22:09:38.084Z,100.00
2023-06-04T22:27:35.225Z,100.00
2023-06-04T22:30:02.138Z,100.00
2023-06-04T22:32:29.361Z,100.00
2023-06-04T22:34:56.764Z,100.00
2023-06-04T22:37:23.974Z,100.00
2023-06-04T22:39:50.858Z,100.00
2023-06-04T22:42:17.659Z,100.00
2023-06-04T22:44:45.187Z,100.00
2023-06-04T22:47:12.347Z,100.00
2023-06-04T22:49:53.368Z,100.00
2023-06-04T22:52:21.479Z,100.00
2023-06-04T22:54:48.698Z,100.00
2023-06-04T22:57:16.003Z,100.00
2023-06-04T22:59:42.951Z,100.00
2023-06-04T23:02:09.869Z,100.00
2023-06-04T23:04:37.980Z,100.00
2023-06-04T23:07:05.113Z,100.00
2023-06-04T23:09:32.191Z,100.00
2023-06-04T23:12:02.910Z,100.00
2023-06-04T23:14:31.015Z,100.00
2023-06-04T23:16:58.562Z,100.00
2023-06-04T23:19:25.941Z,100.00
2023-06-04T23:21:52.997Z,100.00
2023-06-04T23:24:20.053Z,100.00
2023-06-04T23:26:47.026Z,100.00
2023-06-04T23:29:13.977Z,100.00
2023-06-04T23:31:41.008Z,100.00
2023-06-04T23:34:08.659Z,100.00
2023-06-04T23:36:36.053Z,100.00
2023-06-04T23:39:03.022Z,100.00
2023-06-04T23:41:30.036Z,100.00
2023-06-04T23:43:58.588Z,100.00
2023-06-04T23:46:26.302Z,100.00
2023-06-04T23:48:53.190Z,100.00
2023-06-04T23:51:20.265Z,100.00
2023-06-04T23:53:48.080Z,100.00
2023-06-04T23:56:17.533Z,100.00
2023-06-04T23:58:45.172Z,100.00
